Terminal Aerodrome Forecast
Issued by NWS Memphis, TN

Home | Current Version | Previous Version | Text Only | Print | Product List | Glossary On
Versions: 1 2 3 4 5 6 7 8 9 10 11 12 13 14 15 16 17 18
604
FTUS44 KMEG 270849 AAA
TAFJBR
TAF AMD
KJBR 270849Z 2709/2806 11003KT P6SM VCTS BKN090CB OVC250
     FM270930 18006KT P6SM VCTS BKN008CB OVC015
     FM271100 20008KT 3SM TSRA BKN020CB OVC100
     FM271500 20015G25KT P6SM SHRA VCTS BKN020CB
     FM271900 22015G28KT 5SM SHRA BKN025 OVC050
     FM280000 25010KT P6SM OVC025=

USA.gov is the U.S. government's official web portal to all federal, state and local government web resources and services.